createdAt,value
2022-08-07T00:00:52.680Z,64.98
2022-08-07T00:03:22.238Z,65.71
2022-08-07T00:05:54.219Z,64.06
2022-08-07T00:08:22.487Z,61.93
2022-08-07T00:10:57.642Z,60.99
2022-08-07T00:13:26.938Z,60.09
2022-08-07T00:15:55.557Z,57.69
2022-08-07T00:18:25.400Z,57.44
2022-08-07T00:20:56.776Z,61.04
2022-08-07T00:23:28.308Z,64.85
2022-08-07T00:26:01.492Z,66.18
2022-08-07T00:28:34.369Z,64.40
2022-08-07T00:31:06.424Z,62.60
2022-08-07T00:33:41.816Z,61.58
2022-08-07T00:36:10.526Z,59.92
2022-08-07T00:38:40.133Z,57.56
2022-08-07T00:41:09.940Z,58.26
2022-08-07T00:44:00.315Z,60.33
2022-08-07T00:46:33.177Z,65.05
2022-08-07T00:49:02.599Z,64.89
2022-08-07T00:51:57.097Z,63.11
2022-08-07T00:54:20.055Z,61.57
2022-08-07T00:56:49.585Z,59.97
2022-08-07T00:59:20.331Z,57.55
2022-08-07T01:02:08.920Z,57.82
2022-08-07T01:04:43.267Z,59.89
2022-08-07T01:07:13.864Z,64.80
2022-08-07T01:10:06.066Z,65.46
2022-08-07T01:12:31.903Z,62.88
2022-08-07T01:15:04.401Z,61.62
2022-08-07T01:17:34.091Z,60.54
2022-08-07T01:20:09.974Z,59.86
2022-08-07T01:22:46.886Z,57.48
2022-08-07T01:25:53.997Z,57.78
2022-08-07T01:28:18.484Z,62.86
2022-08-07T01:30:51.333Z,64.92
2022-08-07T01:33:21.215Z,63.29
2022-08-07T01:35:53.710Z,61.44
2022-08-07T01:38:25.988Z,60.88
2022-08-07T01:41:02.640Z,60.35
2022-08-07T01:43:38.175Z,58.36
2022-08-07T01:46:12.331Z,58.60
2022-08-07T01:48:46.733Z,60.34
2022-08-07T01:52:01.342Z,65.24
2022-08-07T01:54:33.326Z,66.12
2022-08-07T01:57:30.910Z,63.99
2022-08-07T02:00:04.341Z,62.51
2022-08-07T02:03:18.102Z,61.49
2022-08-07T02:05:47.865Z,60.21
2022-08-07T02:08:29.232Z,57.52
2022-08-07T02:11:00.134Z,60.92
2022-08-07T02:14:00.708Z,67.15
2022-08-07T02:16:28.537Z,67.16
2022-08-07T02:19:05.749Z,65.18
2022-08-07T02:21:56.604Z,62.80
2022-08-07T02:24:29.279Z,62.00
2022-08-07T02:27:01.349Z,61.33
2022-08-07T02:29:32.738Z,60.29
2022-08-07T02:32:05.060Z,57.85
2022-08-07T02:34:34.528Z,58.87
2022-08-07T02:37:08.380Z,64.12
2022-08-07T02:40:29.493Z,65.12
2022-08-07T02:42:34.536Z,62.41
2022-08-07T02:45:59.446Z,60.85
2022-08-07T02:47:59.487Z,57.75
2022-08-07T02:50:33.259Z,58.00
2022-08-07T02:53:07.037Z,60.17
2022-08-07T02:56:03.536Z,65.10
2022-08-07T02:58:36.356Z,64.96
2022-08-07T03:01:16.088Z,62.20
2022-08-07T03:03:50.869Z,60.38
2022-08-07T03:06:34.538Z,57.26
2022-08-07T03:09:04.789Z,57.62
2022-08-07T03:11:38.947Z,60.56
2022-08-07T03:14:22.451Z,66.47
2022-08-07T03:16:52.367Z,66.69
2022-08-07T03:19:22.015Z,64.21
2022-08-07T03:21:52.188Z,62.03
2022-08-07T03:24:26.890Z,61.24
2022-08-07T03:27:01.646Z,59.82
2022-08-07T03:29:46.125Z,57.47
2022-08-07T03:32:22.761Z,57.45
2022-08-07T03:35:01.103Z,59.59
2022-08-07T03:37:53.864Z,66.30
2022-08-07T03:40:30.870Z,65.94
2022-08-07T03:43:00.965Z,63.24
2022-08-07T03:45:31.570Z,61.05
2022-08-07T03:48:10.050Z,57.81
2022-08-07T03:50:52.040Z,57.91
2022-08-07T03:54:00.761Z,59.68
2022-08-07T03:56:32.637Z,65.81
2022-08-07T03:59:08.326Z,65.52
2022-08-07T04:01:43.262Z,60.22
2022-08-07T04:04:17.369Z,56.14
2022-08-07T04:06:50.927Z,56.65
2022-08-07T04:09:23.462Z,58.55
2022-08-07T04:12:20.676Z,60.43
2022-08-07T04:14:43.912Z,66.72
2022-08-07T04:17:21.255Z,61.96
2022-08-07T04:19:55.305Z,53.09
2022-08-07T04:22:30.086Z,51.16
2022-08-07T04:25:08.851Z,50.41
2022-08-07T04:27:44.419Z,50.14
2022-08-07T04:30:21.535Z,50.46
2022-08-07T04:33:13.910Z,49.17
2022-08-07T04:35:50.420Z,48.45
2022-08-07T04:38:21.436Z,48.61
2022-08-07T04:40:51.887Z,49.86
2022-08-07T04:43:28.415Z,51.69
2022-08-07T04:46:29.560Z,53.08
2022-08-07T04:49:14.914Z,53.04
2022-08-07T04:51:59.993Z,54.09
2022-08-07T04:54:34.320Z,52.90
2022-08-07T04:58:09.596Z,48.34
2022-08-07T05:00:14.256Z,46.07
2022-08-07T05:02:54.425Z,45.24
2022-08-07T05:05:53.314Z,42.39
2022-08-07T05:09:00.195Z,42.22
2022-08-07T05:11:24.557Z,44.18
2022-08-07T05:14:54.218Z,44.14
2022-08-07T05:16:52.880Z,44.01
2022-08-07T05:19:43.985Z,45.83
2022-08-07T05:22:26.753Z,41.15
2022-08-07T05:24:59.593Z,40.41
2022-08-07T05:28:03.087Z,39.61
2022-08-07T05:30:30.280Z,38.97
2022-08-07T05:33:03.644Z,39.76
2022-08-07T05:35:41.683Z,37.16
2022-08-07T05:38:11.895Z,40.97
2022-08-07T05:40:50.306Z,39.40
2022-08-07T05:43:49.761Z,38.27
2022-08-07T05:46:09.990Z,37.85
2022-08-07T05:48:59.088Z,37.93
2022-08-07T05:51:31.513Z,39.68
2022-08-07T05:54:12.565Z,37.02
2022-08-07T05:56:51.692Z,39.37
2022-08-07T05:59:20.992Z,40.13
2022-08-07T06:01:52.027Z,40.44
2022-08-07T06:04:22.055Z,42.51
2022-08-07T06:07:03.909Z,44.56
2022-08-07T06:10:04.586Z,47.61
2022-08-07T06:12:27.799Z,47.55
2022-08-07T06:15:05.227Z,49.13
2022-08-07T06:17:38.031Z,49.63
2022-08-07T06:20:12.544Z,50.19
2022-08-07T06:23:02.161Z,49.68
2022-08-07T06:25:54.390Z,47.19
2022-08-07T06:28:27.475Z,45.02
2022-08-07T06:30:58.248Z,43.43
2022-08-07T06:33:29.696Z,42.40
2022-08-07T06:36:06.620Z,41.89
2022-08-07T06:38:58.469Z,42.67
2022-08-07T06:42:02.567Z,42.79
2022-08-07T06:44:40.068Z,41.97
2022-08-07T06:47:10.433Z,41.59
2022-08-07T06:49:50.795Z,41.98
2022-08-07T06:52:31.896Z,44.22
2022-08-07T06:55:31.421Z,45.96
2022-08-07T06:58:01.072Z,48.54
2022-08-07T07:00:34.468Z,51.01
2022-08-07T07:03:08.755Z,52.53
2022-08-07T07:06:05.394Z,54.08
2022-08-07T07:08:29.964Z,55.38
2022-08-07T07:11:13.975Z,56.41
2022-08-07T07:13:57.384Z,57.05
2022-08-07T07:16:45.427Z,57.80
2022-08-07T07:19:55.405Z,58.67
2022-08-07T07:22:33.926Z,59.07
2022-08-07T07:25:13.806Z,57.82
2022-08-07T07:27:58.549Z,58.19
2022-08-07T07:30:38.436Z,58.57
2022-08-07T07:33:12.351Z,58.80
2022-08-07T07:36:04.540Z,58.64
2022-08-07T07:38:33.194Z,57.60
2022-08-07T07:41:08.766Z,56.96
2022-08-07T07:44:14.130Z,57.35
2022-08-07T07:46:37.173Z,58.32
2022-08-07T07:50:32.807Z,59.75
2022-08-07T07:52:16.022Z,60.44
2022-08-07T07:54:50.885Z,61.40
2022-08-07T07:57:43.612Z,61.89
2022-08-07T08:00:20.707Z,62.04
2022-08-07T08:03:04.768Z,63.41
2022-08-07T08:05:42.802Z,59.48
2022-08-07T08:08:34.508Z,55.94
2022-08-07T08:11:09.218Z,57.04
2022-08-07T08:13:54.007Z,59.30
2022-08-07T08:16:30.059Z,59.55
2022-08-07T08:20:17.220Z,60.79
2022-08-07T08:22:32.616Z,61.09
2022-08-07T08:25:26.792Z,61.63
2022-08-07T08:28:17.022Z,62.08
2022-08-07T08:30:57.354Z,58.52
2022-08-07T08:33:29.078Z,56.69
2022-08-07T08:36:03.106Z,57.31
2022-08-07T08:38:38.605Z,58.65
2022-08-07T08:41:18.266Z,58.96
2022-08-07T08:43:59.390Z,59.65
2022-08-07T08:46:48.745Z,59.81
2022-08-07T08:49:33.636Z,59.25
2022-08-07T08:52:19.391Z,59.41
2022-08-07T08:54:55.116Z,59.67
2022-08-07T08:57:34.672Z,59.07
2022-08-07T09:00:07.987Z,58.96
2022-08-07T09:02:49.567Z,59.70
2022-08-07T09:05:38.139Z,60.25
2022-08-07T09:08:17.867Z,60.03
2022-08-07T09:11:03.623Z,59.62
2022-08-07T09:13:38.087Z,57.79
2022-08-07T09:16:22.441Z,56.65
2022-08-07T09:19:51.065Z,57.23
2022-08-07T09:24:31.093Z,56.68
2022-08-07T09:25:24.912Z,55.44
2022-08-07T09:28:02.867Z,54.44
2022-08-07T09:30:47.627Z,54.14
2022-08-07T09:33:52.588Z,53.40
2022-08-07T09:36:33.581Z,51.95
2022-08-07T09:39:27.522Z,50.93
2022-08-07T09:42:17.076Z,49.88
2022-08-07T09:47:24.493Z,50.49
2022-08-07T09:48:04.951Z,51.97
2022-08-07T09:50:51.425Z,52.33
2022-08-07T09:53:22.650Z,52.26
2022-08-07T09:56:08.860Z,51.86
2022-08-07T09:59:00.759Z,50.87
2022-08-07T10:02:00.889Z,50.97
2022-08-07T10:04:47.573Z,51.95
2022-08-07T10:07:52.970Z,51.88
2022-08-07T10:11:00.275Z,52.17
2022-08-07T10:14:00.145Z,51.06
2022-08-07T10:16:38.569Z,50.42
2022-08-07T10:19:37.797Z,49.80
2022-08-07T10:22:33.297Z,49.66
2022-08-07T10:25:22.669Z,49.51
2022-08-07T10:28:29.266Z,49.45
2022-08-07T10:31:10.970Z,50.10
2022-08-07T10:34:05.806Z,49.26
2022-08-07T10:37:12.514Z,49.91
2022-08-07T10:40:06.003Z,50.59
2022-08-07T10:42:41.325Z,50.79
2022-08-07T10:45:44.056Z,50.53
2022-08-07T10:48:35.785Z,50.37
2022-08-07T10:51:16.949Z,50.54
2022-08-07T10:54:10.685Z,49.54
2022-08-07T10:57:06.291Z,48.44
2022-08-07T10:59:47.726Z,48.27
2022-08-07T11:02:33.545Z,48.07
2022-08-07T11:05:49.136Z,47.67
2022-08-07T11:08:30.312Z,48.24
2022-08-07T11:11:05.579Z,47.34
2022-08-07T11:14:42.766Z,46.07
2022-08-07T11:16:31.059Z,46.43
2022-08-07T11:19:07.098Z,47.33
2022-08-07T11:21:49.888Z,48.12
2022-08-07T11:24:23.190Z,48.25
2022-08-07T11:26:57.054Z,48.02
2022-08-07T11:29:41.926Z,47.80
2022-08-07T11:32:25.402Z,48.07
2022-08-07T11:34:58.386Z,49.07
2022-08-07T11:37:58.298Z,49.32
2022-08-07T11:40:49.896Z,49.40
2022-08-07T11:43:29.756Z,49.26
2022-08-07T11:46:21.798Z,48.60
2022-08-07T11:49:50.855Z,47.53
2022-08-07T11:52:12.957Z,45.76
2022-08-07T11:55:18.626Z,45.78
2022-08-07T11:58:13.255Z,43.46
2022-08-07T12:01:02.595Z,43.57
2022-08-07T12:03:57.372Z,43.13
2022-08-07T12:07:00.322Z,43.62
2022-08-07T12:09:37.182Z,44.05
2022-08-07T12:12:11.625Z,43.80
2022-08-07T12:14:55.692Z,43.50
2022-08-07T12:17:59.386Z,44.02
2022-08-07T12:20:34.771Z,43.82
2022-08-07T12:24:05.478Z,43.24
2022-08-07T12:26:29.299Z,43.89
2022-08-07T12:29:07.030Z,43.89
2022-08-07T12:32:02.309Z,44.25
2022-08-07T12:34:31.409Z,43.89
2022-08-07T12:37:08.814Z,43.80
2022-08-07T12:39:51.368Z,43.89
2022-08-07T12:42:27.110Z,43.21
2022-08-07T12:44:58.333Z,41.67
2022-08-07T12:47:38.254Z,42.41
2022-08-07T12:50:39.396Z,42.36
2022-08-07T12:53:17.461Z,43.04
2022-08-07T12:56:03.303Z,42.84
2022-08-07T12:58:39.704Z,42.84
2022-08-07T13:01:22.745Z,42.45
2022-08-07T13:04:32.600Z,41.69
2022-08-07T13:08:12.479Z,42.01
2022-08-07T13:10:44.806Z,41.44
2022-08-07T13:13:48.247Z,41.21
2022-08-07T13:16:29.033Z,41.47
2022-08-07T13:19:18.237Z,41.37
2022-08-07T13:22:04.128Z,41.94
2022-08-07T13:24:53.902Z,42.08
2022-08-07T13:28:05.707Z,42.05
2022-08-07T13:30:19.714Z,40.55
2022-08-07T13:33:16.383Z,40.56
2022-08-07T13:36:05.404Z,40.19
2022-08-07T13:38:42.100Z,39.85
2022-08-07T13:41:21.039Z,40.13
2022-08-07T13:43:55.944Z,40.24
2022-08-07T13:46:33.402Z,39.21
2022-08-07T13:49:04.950Z,39.71
2022-08-07T13:52:05.188Z,40.49
2022-08-07T13:54:33.575Z,41.35
2022-08-07T13:57:08.665Z,41.51
2022-08-07T13:59:44.599Z,40.82
2022-08-07T14:02:19.086Z,41.13
2022-08-07T14:05:04.575Z,40.51
2022-08-07T14:07:59.304Z,40.72
2022-08-07T14:10:42.242Z,40.81
2022-08-07T14:13:16.207Z,41.38
2022-08-07T14:15:53.071Z,40.95
2022-08-07T14:18:31.970Z,40.34
2022-08-07T14:21:11.639Z,40.61
2022-08-07T14:24:00.591Z,40.80
2022-08-07T14:26:35.808Z,39.65
2022-08-07T14:30:05.442Z,39.99
2022-08-07T14:32:01.076Z,39.71
2022-08-07T14:34:31.426Z,40.35
2022-08-07T14:37:03.291Z,40.65
2022-08-07T14:40:17.392Z,40.97
2022-08-07T14:42:31.473Z,41.10
2022-08-07T14:45:06.431Z,41.03
2022-08-07T14:47:53.066Z,41.60
2022-08-07T14:50:29.145Z,41.71
2022-08-07T14:53:09.647Z,41.94
2022-08-07T14:58:33.512Z,42.03
2022-08-07T15:01:22.042Z,41.45
2022-08-07T15:06:47.970Z,41.35
2022-08-07T15:09:58.384Z,41.86
2022-08-07T15:12:10.657Z,41.55
2022-08-07T15:14:58.495Z,41.30
2022-08-07T15:17:33.112Z,40.70
2022-08-07T15:20:32.495Z,40.38
2022-08-07T15:23:22.187Z,40.72
2022-08-07T15:34:50.806Z,41.66
2022-08-07T15:38:04.713Z,41.60
2022-08-07T15:40:34.091Z,41.71
2022-08-07T15:43:53.343Z,41.40
2022-08-07T15:46:31.659Z,41.62
2022-08-07T15:49:12.572Z,41.77
2022-08-07T15:54:34.549Z,41.29
2022-08-07T15:57:40.070Z,42.09
2022-08-07T16:00:34.057Z,41.99
2022-08-07T16:03:21.774Z,42.18
2022-08-07T16:05:58.832Z,42.30
2022-08-07T16:08:37.789Z,42.45
2022-08-07T16:11:17.458Z,42.87
2022-08-07T16:14:04.904Z,42.79
2022-08-07T16:16:49.819Z,42.68
2022-08-07T16:19:42.541Z,43.16
2022-08-07T16:22:55.149Z,43.01
2022-08-07T16:25:54.251Z,43.54
2022-08-07T16:30:06.514Z,43.85
2022-08-07T16:31:51.394Z,44.01
2022-08-07T16:34:36.658Z,44.01
2022-08-07T16:38:06.253Z,43.99
2022-08-07T16:40:57.232Z,44.45
2022-08-07T16:44:03.909Z,44.86
2022-08-07T16:47:27.330Z,45.17
2022-08-07T16:50:35.628Z,45.36
2022-08-07T16:54:02.073Z,45.23
2022-08-07T16:56:25.817Z,45.58
2022-08-07T16:59:10.937Z,45.95
2022-08-07T17:01:56.643Z,46.19
2022-08-07T17:04:36.829Z,46.48
2022-08-07T17:07:28.414Z,46.81
2022-08-07T17:10:30.207Z,46.88
2022-08-07T17:13:41.408Z,46.59
2022-08-07T17:16:21.827Z,46.25
2022-08-07T17:19:03.455Z,46.50
2022-08-07T17:21:50.679Z,46.61
2022-08-07T17:24:55.373Z,46.93
2022-08-07T17:27:50.690Z,46.93
2022-08-07T17:30:26.490Z,47.10
2022-08-07T17:34:09.066Z,47.27
2022-08-07T17:36:13.473Z,47.38
2022-08-07T17:39:00.328Z,47.67
2022-08-07T17:42:04.954Z,47.80
2022-08-07T17:44:45.480Z,48.09
2022-08-07T17:47:38.434Z,48.32
2022-08-07T17:50:19.265Z,48.62
2022-08-07T17:52:59.580Z,49.14
2022-08-07T17:55:59.968Z,49.42
2022-08-07T17:58:46.292Z,49.55
2022-08-07T18:01:34.737Z,49.97
2022-08-07T18:04:16.786Z,50.27
2022-08-07T18:06:57.953Z,50.67
2022-08-07T18:10:05.293Z,50.92
2022-08-07T18:13:06.499Z,51.09
2022-08-07T18:15:58.382Z,51.38
2022-08-07T18:18:45.045Z,51.50
2022-08-07T18:21:53.620Z,51.59
2022-08-07T18:24:33.585Z,52.03
2022-08-07T18:27:38.739Z,52.40
2022-08-07T18:30:31.186Z,52.35
2022-08-07T18:33:36.168Z,52.61
2022-08-07T18:36:16.577Z,52.78
2022-08-07T18:40:05.128Z,53.33
2022-08-07T18:42:12.862Z,53.52
2022-08-07T18:45:44.468Z,54.18
2022-08-07T18:48:01.357Z,54.87
2022-08-07T18:50:48.024Z,55.26
2022-08-07T18:53:36.907Z,56.57
2022-08-07T18:56:19.444Z,57.45
2022-08-07T19:02:33.986Z,56.89
2022-08-07T19:05:15.879Z,56.98
2022-08-07T19:07:57.711Z,57.58
2022-08-07T19:10:51.380Z,56.95
2022-08-07T19:13:26.525Z,59.32
2022-08-07T19:17:04.638Z,60.54
2022-08-07T19:19:00.048Z,70.60
2022-08-07T19:21:47.484Z,64.26
2022-08-07T19:24:36.123Z,56.02
2022-08-07T19:30:55.673Z,53.95
2022-08-07T19:31:00.065Z,54.03
2022-08-07T19:32:59.762Z,52.90
2022-08-07T19:35:33.083Z,53.44
2022-08-07T19:38:16.640Z,54.13
2022-08-07T19:40:50.714Z,54.56
2022-08-07T19:43:48.592Z,57.17
2022-08-07T19:46:19.082Z,59.22
2022-08-07T19:48:53.813Z,60.34
2022-08-07T19:51:51.830Z,65.57
2022-08-07T19:54:31.937Z,59.57
2022-08-07T19:58:00.429Z,54.55
2022-08-07T20:00:02.016Z,54.21
2022-08-07T20:02:39.016Z,55.60
2022-08-07T20:05:28.659Z,55.81
2022-08-07T20:08:01.787Z,55.58
2022-08-07T20:10:55.091Z,56.47
2022-08-07T20:13:32.156Z,56.60
2022-08-07T20:16:02.788Z,56.78
2022-08-07T20:18:34.318Z,56.98
2022-08-07T20:21:03.577Z,57.32
2022-08-07T20:23:54.311Z,57.23
2022-08-07T20:26:32.707Z,57.78
2022-08-07T20:29:46.743Z,58.09
2022-08-07T20:32:11.451Z,58.01
2022-08-07T20:34:54.328Z,58.40
2022-08-07T20:37:29.308Z,58.51
2022-08-07T20:40:03.379Z,58.63
2022-08-07T20:42:37.046Z,58.67
2022-08-07T20:45:32.789Z,58.88
2022-08-07T20:47:58.454Z,58.86
2022-08-07T20:50:30.400Z,58.96
2022-08-07T20:52:59.865Z,58.91
2022-08-07T20:55:32.300Z,58.99
2022-08-07T20:58:12.123Z,59.01
2022-08-07T21:01:03.839Z,58.75
2022-08-07T21:03:35.866Z,58.88
2022-08-07T21:06:22.282Z,59.01
2022-08-07T21:09:00.720Z,58.89
2022-08-07T21:11:46.029Z,59.55
2022-08-07T21:14:33.080Z,60.51
2022-08-07T21:18:06.173Z,59.96
2022-08-07T21:20:05.232Z,59.62
2022-08-07T21:22:39.391Z,59.40
2022-08-07T21:25:20.751Z,59.17
2022-08-07T21:28:04.157Z,59.05
2022-08-07T21:30:43.200Z,59.01
2022-08-07T21:33:22.076Z,59.03
2022-08-07T21:36:06.333Z,58.82
2022-08-07T21:38:50.108Z,58.88
2022-08-07T21:41:24.620Z,58.80
2022-08-07T21:44:05.706Z,58.82
2022-08-07T21:46:40.853Z,58.80
2022-08-07T21:49:14.776Z,58.86
2022-08-07T21:52:01.995Z,58.73
2022-08-07T21:54:46.194Z,58.81
2022-08-07T21:57:39.636Z,58.68
2022-08-07T22:00:23.057Z,58.58
2022-08-07T22:03:05.552Z,58.69
2022-08-07T22:05:50.268Z,58.80
2022-08-07T22:08:33.270Z,58.87
2022-08-07T22:11:05.586Z,58.89
2022-08-07T22:13:52.074Z,58.99
2022-08-07T22:16:40.038Z,58.73
2022-08-07T22:19:23.628Z,58.91
2022-08-07T22:22:21.592Z,59.10
2022-08-07T22:25:05.241Z,59.24
2022-08-07T22:28:06.382Z,59.39
2022-08-07T22:30:36.222Z,59.35
2022-08-07T22:33:09.715Z,59.89
2022-08-07T22:35:43.506Z,60.04
2022-08-07T22:38:25.668Z,60.08
2022-08-07T22:40:59.911Z,60.19
2022-08-07T22:43:36.306Z,60.30
2022-08-07T22:47:02.441Z,61.23
2022-08-07T22:49:54.148Z,75.24
2022-08-07T22:52:43.401Z,67.75
2022-08-07T22:55:30.888Z,59.06
2022-08-07T22:58:27.871Z,55.93
2022-08-07T23:01:15.380Z,56.67
2022-08-07T23:04:00.199Z,57.59
2022-08-07T23:06:51.488Z,57.57
2022-08-07T23:10:05.526Z,58.22
2022-08-07T23:12:34.400Z,58.18
2022-08-07T23:15:12.359Z,58.64
2022-08-07T23:18:13.207Z,58.92
2022-08-07T23:21:02.896Z,59.36
2022-08-07T23:24:06.120Z,59.87
2022-08-07T23:26:54.995Z,60.45
2022-08-07T23:30:38.283Z,60.62
2022-08-07T23:34:34.420Z,61.02
2022-08-07T23:35:52.927Z,61.42
2022-08-07T23:38:36.526Z,68.43
2022-08-07T23:41:24.475Z,67.11
2022-08-07T23:44:31.668Z,57.62
2022-08-07T23:47:17.429Z,54.31
2022-08-07T23:50:23.576Z,55.13
2022-08-07T23:53:06.462Z,56.53
2022-08-07T23:55:47.139Z,58.59
2022-08-07T23:58:29.576Z,60.23
